sensor_id;sensor_type;location;lat;lon;timestamp;P1;durP1;ratioP1;P2;durP2;ratioP2
79566;SDS011;69030;48.126;7.816;2023-04-26T00:01:57;7.47;;;5.53;;
79566;SDS011;69030;48.126;7.816;2023-04-26T00:04:23;6.22;;;5.18;;
79566;SDS011;69030;48.126;7.816;2023-04-26T00:06:48;6.47;;;4.90;;
79566;SDS011;69030;48.126;7.816;2023-04-26T00:09:14;10.82;;;6.78;;
79566;SDS011;69030;48.126;7.816;2023-04-26T00:11:39;5.25;;;4.72;;
79566;SDS011;69030;48.126;7.816;2023-04-26T00:14:05;5.88;;;4.03;;
79566;SDS011;69030;48.126;7.816;2023-04-26T00:16:30;4.05;;;3.28;;
79566;SDS011;69030;48.126;7.816;2023-04-26T00:18:56;4.40;;;3.78;;
79566;SDS011;69030;48.126;7.816;2023-04-26T00:21:21;3.83;;;3.20;;
79566;SDS011;69030;48.126;7.816;2023-04-26T00:23:47;4.55;;;3.75;;
79566;SDS011;69030;48.126;7.816;2023-04-26T00:26:12;10.15;;;5.18;;
79566;SDS011;69030;48.126;7.816;2023-04-26T00:28:37;4.82;;;3.60;;
79566;SDS011;69030;48.126;7.816;2023-04-26T00:31:03;5.93;;;4.75;;
79566;SDS011;69030;48.126;7.816;2023-04-26T00:33:28;5.60;;;3.25;;
79566;SDS011;69030;48.126;7.816;2023-04-26T00:35:54;3.67;;;3.08;;
79566;SDS011;69030;48.126;7.816;2023-04-26T00:38:20;4.68;;;4.07;;
79566;SDS011;69030;48.126;7.816;2023-04-26T00:40:45;3.70;;;2.95;;
79566;SDS011;69030;48.126;7.816;2023-04-26T00:43:10;4.38;;;3.33;;
79566;SDS011;69030;48.126;7.816;2023-04-26T00:45:36;4.03;;;3.45;;
79566;SDS011;69030;48.126;7.816;2023-04-26T00:48:01;4.50;;;2.75;;
79566;SDS011;69030;48.126;7.816;2023-04-26T00:50:28;5.95;;;4.18;;
79566;SDS011;69030;48.126;7.816;2023-04-26T00:52:54;9.57;;;5.60;;
79566;SDS011;69030;48.126;7.816;2023-04-26T00:55:20;11.93;;;7.07;;
79566;SDS011;69030;48.126;7.816;2023-04-26T00:57:47;9.48;;;6.90;;
79566;SDS011;69030;48.126;7.816;2023-04-26T01:00:12;9.65;;;6.53;;
79566;SDS011;69030;48.126;7.816;2023-04-26T01:02:38;8.60;;;5.65;;
79566;SDS011;69030;48.126;7.816;2023-04-26T01:05:03;8.60;;;6.18;;
79566;SDS011;69030;48.126;7.816;2023-04-26T01:07:30;8.82;;;6.38;;
79566;SDS011;69030;48.126;7.816;2023-04-26T01:09:56;7.43;;;5.78;;
79566;SDS011;69030;48.126;7.816;2023-04-26T01:12:22;8.40;;;6.82;;
79566;SDS011;69030;48.126;7.816;2023-04-26T01:14:48;9.85;;;6.13;;
79566;SDS011;69030;48.126;7.816;2023-04-26T01:17:14;9.55;;;6.78;;
79566;SDS011;69030;48.126;7.816;2023-04-26T01:19:48;9.13;;;5.97;;
79566;SDS011;69030;48.126;7.816;2023-04-26T01:22:14;10.55;;;6.57;;
79566;SDS011;69030;48.126;7.816;2023-04-26T01:24:41;7.70;;;4.65;;
79566;SDS011;69030;48.126;7.816;2023-04-26T01:27:08;10.18;;;5.75;;
79566;SDS011;69030;48.126;7.816;2023-04-26T01:29:34;8.40;;;5.13;;
79566;SDS011;69030;48.126;7.816;2023-04-26T01:31:59;6.95;;;5.13;;
79566;SDS011;69030;48.126;7.816;2023-04-26T01:34:25;6.75;;;4.95;;
79566;SDS011;69030;48.126;7.816;2023-04-26T01:36:50;5.97;;;4.47;;
79566;SDS011;69030;48.126;7.816;2023-04-26T01:39:16;7.30;;;4.63;;
79566;SDS011;69030;48.126;7.816;2023-04-26T01:41:41;4.90;;;4.15;;
79566;SDS011;69030;48.126;7.816;2023-04-26T01:44:06;8.20;;;4.75;;
79566;SDS011;69030;48.126;7.816;2023-04-26T01:46:32;4.43;;;3.67;;
79566;SDS011;69030;48.126;7.816;2023-04-26T01:48:57;7.30;;;4.32;;
79566;SDS011;69030;48.126;7.816;2023-04-26T01:51:22;5.60;;;4.20;;
79566;SDS011;69030;48.126;7.816;2023-04-26T01:53:48;5.43;;;4.07;;
79566;SDS011;69030;48.126;7.816;2023-04-26T01:56:13;5.75;;;4.20;;
79566;SDS011;69030;48.126;7.816;2023-04-26T01:58:38;6.70;;;5.05;;
79566;SDS011;69030;48.126;7.816;2023-04-26T02:01:05;6.72;;;4.85;;
79566;SDS011;69030;48.126;7.816;2023-04-26T02:03:31;5.32;;;4.55;;
79566;SDS011;69030;48.126;7.816;2023-04-26T02:05:57;9.07;;;3.78;;
79566;SDS011;69030;48.126;7.816;2023-04-26T02:08:22;6.38;;;5.50;;
79566;SDS011;69030;48.126;7.816;2023-04-26T02:10:47;7.07;;;5.20;;
79566;SDS011;69030;48.126;7.816;2023-04-26T02:13:13;8.68;;;5.35;;
79566;SDS011;69030;48.126;7.816;2023-04-26T02:15:39;10.32;;;4.50;;
79566;SDS011;69030;48.126;7.816;2023-04-26T02:18:04;8.45;;;5.85;;
79566;SDS011;69030;48.126;7.816;2023-04-26T02:20:30;7.75;;;5.70;;
79566;SDS011;69030;48.126;7.816;2023-04-26T02:22:55;7.75;;;5.25;;
79566;SDS011;69030;48.126;7.816;2023-04-26T02:25:21;8.32;;;5.20;;
79566;SDS011;69030;48.126;7.816;2023-04-26T02:27:46;7.35;;;5.43;;
79566;SDS011;69030;48.126;7.816;2023-04-26T02:30:11;8.93;;;7.18;;
79566;SDS011;69030;48.126;7.816;2023-04-26T02:32:37;8.05;;;6.57;;
79566;SDS011;69030;48.126;7.816;2023-04-26T02:35:03;7.60;;;5.97;;
79566;SDS011;69030;48.126;7.816;2023-04-26T02:37:29;6.55;;;5.82;;
79566;SDS011;69030;48.126;7.816;2023-04-26T02:39:54;9.18;;;5.65;;
79566;SDS011;69030;48.126;7.816;2023-04-26T02:42:20;8.73;;;7.20;;
79566;SDS011;69030;48.126;7.816;2023-04-26T02:44:45;9.07;;;6.07;;
79566;SDS011;69030;48.126;7.816;2023-04-26T02:47:10;8.70;;;6.10;;
79566;SDS011;69030;48.126;7.816;2023-04-26T02:49:36;7.20;;;5.85;;
79566;SDS011;69030;48.126;7.816;2023-04-26T02:52:01;8.90;;;4.60;;
79566;SDS011;69030;48.126;7.816;2023-04-26T02:54:27;10.43;;;6.55;;
79566;SDS011;69030;48.126;7.816;2023-04-26T02:56:52;9.45;;;6.00;;
79566;SDS011;69030;48.126;7.816;2023-04-26T02:59:19;8.90;;;6.80;;
79566;SDS011;69030;48.126;7.816;2023-04-26T03:01:44;11.48;;;8.02;;
79566;SDS011;69030;48.126;7.816;2023-04-26T03:04:10;8.93;;;5.93;;
79566;SDS011;69030;48.126;7.816;2023-04-26T03:06:35;8.10;;;5.43;;
79566;SDS011;69030;48.126;7.816;2023-04-26T03:09:00;6.43;;;4.75;;
79566;SDS011;69030;48.126;7.816;2023-04-26T03:11:26;7.13;;;4.95;;
79566;SDS011;69030;48.126;7.816;2023-04-26T03:13:51;12.15;;;7.15;;
79566;SDS011;69030;48.126;7.816;2023-04-26T03:16:19;81.47;;;37.38;;
79566;SDS011;69030;48.126;7.816;2023-04-26T03:18:47;36.90;;;17.73;;
79566;SDS011;69030;48.126;7.816;2023-04-26T03:21:13;63.65;;;30.50;;
79566;SDS011;69030;48.126;7.816;2023-04-26T03:23:38;168.50;;;75.32;;
79566;SDS011;69030;48.126;7.816;2023-04-26T03:26:04;57.55;;;29.85;;
79566;SDS011;69030;48.126;7.816;2023-04-26T03:28:29;32.70;;;19.90;;
79566;SDS011;69030;48.126;7.816;2023-04-26T03:30:55;19.98;;;15.00;;
79566;SDS011;69030;48.126;7.816;2023-04-26T03:33:20;16.35;;;11.43;;
79566;SDS011;69030;48.126;7.816;2023-04-26T03:35:45;10.32;;;7.20;;
79566;SDS011;69030;48.126;7.816;2023-04-26T03:38:11;9.10;;;6.25;;
79566;SDS011;69030;48.126;7.816;2023-04-26T03:40:36;10.32;;;6.28;;
79566;SDS011;69030;48.126;7.816;2023-04-26T03:43:02;8.93;;;5.82;;
79566;SDS011;69030;48.126;7.816;2023-04-26T03:45:27;8.10;;;4.90;;
79566;SDS011;69030;48.126;7.816;2023-04-26T03:47:52;14.85;;;7.72;;
79566;SDS011;69030;48.126;7.816;2023-04-26T03:50:18;6.63;;;5.00;;
79566;SDS011;69030;48.126;7.816;2023-04-26T03:52:43;6.80;;;3.22;;
79566;SDS011;69030;48.126;7.816;2023-04-26T03:55:08;7.07;;;4.40;;
79566;SDS011;69030;48.126;7.816;2023-04-26T03:57:35;6.78;;;5.50;;
79566;SDS011;69030;48.126;7.816;2023-04-26T04:00:01;6.90;;;5.38;;
79566;SDS011;69030;48.126;7.816;2023-04-26T04:02:26;6.40;;;4.35;;
79566;SDS011;69030;48.126;7.816;2023-04-26T04:04:52;7.45;;;4.88;;
79566;SDS011;69030;48.126;7.816;2023-04-26T04:07:17;6.22;;;4.15;;
79566;SDS011;69030;48.126;7.816;2023-04-26T04:09:43;6.50;;;4.03;;
79566;SDS011;69030;48.126;7.816;2023-04-26T04:12:08;5.53;;;4.25;;
79566;SDS011;69030;48.126;7.816;2023-04-26T04:14:34;6.97;;;4.22;;
79566;SDS011;69030;48.126;7.816;2023-04-26T04:16:59;6.95;;;5.18;;
79566;SDS011;69030;48.126;7.816;2023-04-26T04:19:24;7.53;;;4.63;;
79566;SDS011;69030;48.126;7.816;2023-04-26T04:21:50;11.82;;;6.28;;
79566;SDS011;69030;48.126;7.816;2023-04-26T04:24:18;6.97;;;6.18;;
79566;SDS011;69030;48.126;7.816;2023-04-26T04:26:47;8.38;;;5.05;;
79566;SDS011;69030;48.126;7.816;2023-04-26T04:29:12;8.73;;;5.03;;
79566;SDS011;69030;48.126;7.816;2023-04-26T04:31:37;8.20;;;5.40;;
79566;SDS011;69030;48.126;7.816;2023-04-26T04:34:04;9.88;;;5.70;;
79566;SDS011;69030;48.126;7.816;2023-04-26T04:36:29;8.55;;;7.13;;
79566;SDS011;69030;48.126;7.816;2023-04-26T04:38:55;11.45;;;6.55;;
79566;SDS011;69030;48.126;7.816;2023-04-26T04:41:20;8.50;;;5.75;;
79566;SDS011;69030;48.126;7.816;2023-04-26T04:43:46;11.98;;;7.07;;
79566;SDS011;69030;48.126;7.816;2023-04-26T04:46:11;11.32;;;7.25;;
79566;SDS011;69030;48.126;7.816;2023-04-26T04:48:37;10.75;;;7.32;;
79566;SDS011;69030;48.126;7.816;2023-04-26T04:51:02;8.63;;;5.85;;
79566;SDS011;69030;48.126;7.816;2023-04-26T04:53:28;10.23;;;6.45;;
79566;SDS011;69030;48.126;7.816;2023-04-26T04:55:53;8.73;;;6.50;;
79566;SDS011;69030;48.126;7.816;2023-04-26T04:58:19;15.68;;;10.20;;
79566;SDS011;69030;48.126;7.816;2023-04-26T05:00:46;12.10;;;7.38;;
79566;SDS011;69030;48.126;7.816;2023-04-26T05:03:12;7.35;;;5.90;;
79566;SDS011;69030;48.126;7.816;2023-04-26T05:05:38;9.23;;;7.30;;
79566;SDS011;69030;48.126;7.816;2023-04-26T05:08:04;8.45;;;5.85;;
79566;SDS011;69030;48.126;7.816;2023-04-26T05:10:31;6.95;;;5.90;;
79566;SDS011;69030;48.126;7.816;2023-04-26T05:12:58;6.60;;;4.63;;
79566;SDS011;69030;48.126;7.816;2023-04-26T05:15:24;5.78;;;4.95;;
79566;SDS011;69030;48.126;7.816;2023-04-26T05:17:49;6.55;;;3.97;;
79566;SDS011;69030;48.126;7.816;2023-04-26T05:20:15;4.63;;;3.72;;
79566;SDS011;69030;48.126;7.816;2023-04-26T05:22:40;7.72;;;5.25;;
79566;SDS011;69030;48.126;7.816;2023-04-26T05:25:06;6.95;;;5.82;;
79566;SDS011;69030;48.126;7.816;2023-04-26T05:27:32;5.93;;;4.90;;
79566;SDS011;69030;48.126;7.816;2023-04-26T05:29:59;7.57;;;4.93;;
79566;SDS011;69030;48.126;7.816;2023-04-26T05:32:25;7.22;;;4.78;;
79566;SDS011;69030;48.126;7.816;2023-04-26T05:34:50;9.07;;;5.43;;
79566;SDS011;69030;48.126;7.816;2023-04-26T05:37:15;22.63;;;10.43;;
79566;SDS011;69030;48.126;7.816;2023-04-26T05:39:41;7.35;;;5.72;;
79566;SDS011;69030;48.126;7.816;2023-04-26T05:42:06;7.18;;;5.30;;
79566;SDS011;69030;48.126;7.816;2023-04-26T05:44:32;7.15;;;5.40;;
79566;SDS011;69030;48.126;7.816;2023-04-26T05:46:57;13.65;;;7.93;;
79566;SDS011;69030;48.126;7.816;2023-04-26T05:49:22;8.40;;;6.28;;
79566;SDS011;69030;48.126;7.816;2023-04-26T05:51:48;8.75;;;6.50;;
79566;SDS011;69030;48.126;7.816;2023-04-26T05:54:13;13.32;;;7.00;;
79566;SDS011;69030;48.126;7.816;2023-04-26T05:56:38;8.63;;;6.65;;
79566;SDS011;69030;48.126;7.816;2023-04-26T05:59:04;13.25;;;11.88;;
79566;SDS011;69030;48.126;7.816;2023-04-26T06:01:29;9.23;;;8.25;;
79566;SDS011;69030;48.126;7.816;2023-04-26T06:03:55;10.95;;;9.40;;
79566;SDS011;69030;48.126;7.816;2023-04-26T06:06:20;10.40;;;6.80;;
79566;SDS011;69030;48.126;7.816;2023-04-26T06:08:45;14.02;;;6.18;;
79566;SDS011;69030;48.126;7.816;2023-04-26T06:11:11;9.77;;;6.80;;
79566;SDS011;69030;48.126;7.816;2023-04-26T06:13:36;10.38;;;6.63;;
79566;SDS011;69030;48.126;7.816;2023-04-26T06:16:01;9.23;;;8.32;;
79566;SDS011;69030;48.126;7.816;2023-04-26T06:18:27;9.27;;;6.10;;
79566;SDS011;69030;48.126;7.816;2023-04-26T06:20:52;9.88;;;6.13;;
79566;SDS011;69030;48.126;7.816;2023-04-26T06:23:17;9.20;;;6.57;;
79566;SDS011;69030;48.126;7.816;2023-04-26T06:25:43;7.90;;;6.00;;
79566;SDS011;69030;48.126;7.816;2023-04-26T06:28:10;11.32;;;6.63;;
79566;SDS011;69030;48.126;7.816;2023-04-26T06:30:36;10.20;;;6.75;;
79566;SDS011;69030;48.126;7.816;2023-04-26T06:33:01;9.90;;;7.28;;
79566;SDS011;69030;48.126;7.816;2023-04-26T06:35:26;10.75;;;6.75;;
79566;SDS011;69030;48.126;7.816;2023-04-26T06:37:52;9.35;;;5.65;;
79566;SDS011;69030;48.126;7.816;2023-04-26T06:40:17;8.20;;;6.13;;
79566;SDS011;69030;48.126;7.816;2023-04-26T06:42:43;7.45;;;5.95;;
79566;SDS011;69030;48.126;7.816;2023-04-26T06:45:09;8.73;;;5.93;;
79566;SDS011;69030;48.126;7.816;2023-04-26T06:47:35;9.05;;;5.43;;
79566;SDS011;69030;48.126;7.816;2023-04-26T06:50:01;8.65;;;6.10;;
79566;SDS011;69030;48.126;7.816;2023-04-26T06:52:28;9.82;;;5.78;;
79566;SDS011;69030;48.126;7.816;2023-04-26T06:54:53;8.50;;;6.57;;
79566;SDS011;69030;48.126;7.816;2023-04-26T06:57:19;7.97;;;6.55;;
79566;SDS011;69030;48.126;7.816;2023-04-26T06:59:44;12.23;;;6.38;;
79566;SDS011;69030;48.126;7.816;2023-04-26T07:02:10;8.68;;;6.70;;
79566;SDS011;69030;48.126;7.816;2023-04-26T07:04:35;9.88;;;7.20;;
79566;SDS011;69030;48.126;7.816;2023-04-26T07:07:00;10.30;;;6.50;;
79566;SDS011;69030;48.126;7.816;2023-04-26T07:09:26;6.70;;;5.65;;
79566;SDS011;69030;48.126;7.816;2023-04-26T07:11:52;6.70;;;5.68;;
79566;SDS011;69030;48.126;7.816;2023-04-26T07:14:17;7.53;;;5.53;;
79566;SDS011;69030;48.126;7.816;2023-04-26T07:16:43;9.13;;;6.50;;
79566;SDS011;69030;48.126;7.816;2023-04-26T07:19:08;11.95;;;5.95;;
79566;SDS011;69030;48.126;7.816;2023-04-26T07:21:34;9.60;;;6.10;;
79566;SDS011;69030;48.126;7.816;2023-04-26T07:24:00;6.65;;;5.15;;
79566;SDS011;69030;48.126;7.816;2023-04-26T07:26:26;5.47;;;4.57;;
79566;SDS011;69030;48.126;7.816;2023-04-26T07:28:51;6.35;;;4.43;;
79566;SDS011;69030;48.126;7.816;2023-04-26T07:31:17;7.20;;;4.75;;
79566;SDS011;69030;48.126;7.816;2023-04-26T07:33:42;6.13;;;4.60;;
79566;SDS011;69030;48.126;7.816;2023-04-26T07:36:08;4.18;;;3.58;;
79566;SDS011;69030;48.126;7.816;2023-04-26T07:38:33;6.10;;;4.40;;
79566;SDS011;69030;48.126;7.816;2023-04-26T07:40:59;5.22;;;4.00;;
79566;SDS011;69030;48.126;7.816;2023-04-26T07:43:25;10.20;;;5.00;;
79566;SDS011;69030;48.126;7.816;2023-04-26T07:45:51;4.05;;;3.65;;
79566;SDS011;69030;48.126;7.816;2023-04-26T07:48:16;7.72;;;6.78;;
79566;SDS011;69030;48.126;7.816;2023-04-26T07:50:41;8.18;;;4.90;;
79566;SDS011;69030;48.126;7.816;2023-04-26T07:53:07;7.00;;;3.90;;
79566;SDS011;69030;48.126;7.816;2023-04-26T07:55:32;7.00;;;4.55;;
79566;SDS011;69030;48.126;7.816;2023-04-26T07:57:57;8.25;;;6.60;;
79566;SDS011;69030;48.126;7.816;2023-04-26T08:00:23;8.18;;;6.32;;
79566;SDS011;69030;48.126;7.816;2023-04-26T08:02:48;8.35;;;6.10;;
79566;SDS011;69030;48.126;7.816;2023-04-26T08:05:14;9.43;;;7.50;;
79566;SDS011;69030;48.126;7.816;2023-04-26T08:07:40;9.55;;;6.25;;
79566;SDS011;69030;48.126;7.816;2023-04-26T08:10:06;9.52;;;6.30;;
79566;SDS011;69030;48.126;7.816;2023-04-26T08:12:32;9.77;;;6.60;;
79566;SDS011;69030;48.126;7.816;2023-04-26T08:15:01;7.72;;;6.45;;
79566;SDS011;69030;48.126;7.816;2023-04-26T08:17:28;8.30;;;5.63;;
79566;SDS011;69030;48.126;7.816;2023-04-26T08:19:53;8.27;;;6.30;;
79566;SDS011;69030;48.126;7.816;2023-04-26T08:22:19;8.40;;;7.35;;
79566;SDS011;69030;48.126;7.816;2023-04-26T08:24:48;9.38;;;7.55;;
79566;SDS011;69030;48.126;7.816;2023-04-26T08:27:14;8.40;;;6.35;;
79566;SDS011;69030;48.126;7.816;2023-04-26T08:29:40;6.38;;;4.97;;
79566;SDS011;69030;48.126;7.816;2023-04-26T08:32:06;8.82;;;5.63;;
79566;SDS011;69030;48.126;7.816;2023-04-26T08:34:31;10.10;;;7.72;;
79566;SDS011;69030;48.126;7.816;2023-04-26T08:36:56;11.32;;;8.20;;
79566;SDS011;69030;48.126;7.816;2023-04-26T08:39:25;8.93;;;7.68;;
79566;SDS011;69030;48.126;7.816;2023-04-26T08:41:51;10.68;;;7.90;;
79566;SDS011;69030;48.126;7.816;2023-04-26T08:44:22;11.18;;;6.97;;
79566;SDS011;69030;48.126;7.816;2023-04-26T08:49:45;9.30;;;7.05;;
79566;SDS011;69030;48.126;7.816;2023-04-26T08:52:17;8.60;;;5.00;;
79566;SDS011;69030;48.126;7.816;2023-04-26T08:54:47;7.40;;;6.53;;
79566;SDS011;69030;48.126;7.816;2023-04-26T08:57:14;8.00;;;5.93;;
79566;SDS011;69030;48.126;7.816;2023-04-26T08:59:40;6.70;;;5.50;;
79566;SDS011;69030;48.126;7.816;2023-04-26T09:02:07;9.13;;;5.68;;
79566;SDS011;69030;48.126;7.816;2023-04-26T09:04:34;8.23;;;5.43;;
79566;SDS011;69030;48.126;7.816;2023-04-26T09:07:02;8.77;;;6.60;;
79566;SDS011;69030;48.126;7.816;2023-04-26T09:09:41;9.43;;;6.07;;
79566;SDS011;69030;48.126;7.816;2023-04-26T09:12:06;7.20;;;6.50;;
79566;SDS011;69030;48.126;7.816;2023-04-26T09:14:32;7.65;;;6.78;;
79566;SDS011;69030;48.126;7.816;2023-04-26T09:16:58;9.40;;;6.80;;
79566;SDS011;69030;48.126;7.816;2023-04-26T09:19:40;8.93;;;7.20;;
79566;SDS011;69030;48.126;7.816;2023-04-26T09:22:08;8.15;;;5.50;;
79566;SDS011;69030;48.126;7.816;2023-04-26T09:24:47;9.75;;;7.00;;
79566;SDS011;69030;48.126;7.816;2023-04-26T09:27:14;8.52;;;5.75;;
79566;SDS011;69030;48.126;7.816;2023-04-26T09:29:41;7.82;;;5.47;;
79566;SDS011;69030;48.126;7.816;2023-04-26T09:35:22;8.13;;;5.65;;
79566;SDS011;69030;48.126;7.816;2023-04-26T09:37:57;9.02;;;6.72;;
79566;SDS011;69030;48.126;7.816;2023-04-26T09:40:30;7.47;;;5.88;;
79566;SDS011;69030;48.126;7.816;2023-04-26T09:43:15;12.02;;;6.97;;
79566;SDS011;69030;48.126;7.816;2023-04-26T09:53:34;11.57;;;6.70;;
79566;SDS011;69030;48.126;7.816;2023-04-26T09:56:07;7.93;;;5.65;;
79566;SDS011;69030;48.126;7.816;2023-04-26T09:59:16;9.32;;;8.00;;
79566;SDS011;69030;48.126;7.816;2023-04-26T10:01:25;7.70;;;6.35;;
79566;SDS011;69030;48.126;7.816;2023-04-26T10:03:53;7.78;;;5.82;;
79566;SDS011;69030;48.126;7.816;2023-04-26T10:06:19;9.45;;;6.68;;
79566;SDS011;69030;48.126;7.816;2023-04-26T10:08:45;6.95;;;6.03;;
79566;SDS011;69030;48.126;7.816;2023-04-26T10:11:10;6.03;;;4.88;;
79566;SDS011;69030;48.126;7.816;2023-04-26T10:13:36;6.78;;;5.47;;
79566;SDS011;69030;48.126;7.816;2023-04-26T10:16:02;6.80;;;4.35;;
79566;SDS011;69030;48.126;7.816;2023-04-26T10:18:28;6.25;;;5.47;;
79566;SDS011;69030;48.126;7.816;2023-04-26T10:20:56;5.57;;;4.40;;
79566;SDS011;69030;48.126;7.816;2023-04-26T10:23:25;6.25;;;5.43;;
79566;SDS011;69030;48.126;7.816;2023-04-26T10:25:51;7.00;;;5.35;;
79566;SDS011;69030;48.126;7.816;2023-04-26T10:28:17;6.53;;;5.43;;
79566;SDS011;69030;48.126;7.816;2023-04-26T10:31:08;8.13;;;5.22;;
79566;SDS011;69030;48.126;7.816;2023-04-26T10:33:34;7.35;;;5.47;;
79566;SDS011;69030;48.126;7.816;2023-04-26T10:36:01;5.90;;;4.78;;
79566;SDS011;69030;48.126;7.816;2023-04-26T10:38:27;6.90;;;5.75;;
79566;SDS011;69030;48.126;7.816;2023-04-26T10:40:53;6.40;;;4.50;;
79566;SDS011;69030;48.126;7.816;2023-04-26T10:45:44;9.93;;;4.68;;
79566;SDS011;69030;48.126;7.816;2023-04-26T10:48:17;6.50;;;5.18;;
79566;SDS011;69030;48.126;7.816;2023-04-26T10:51:17;7.28;;;6.50;;
79566;SDS011;69030;48.126;7.816;2023-04-26T10:59:10;5.63;;;4.22;;
79566;SDS011;69030;48.126;7.816;2023-04-26T11:01:39;3.95;;;2.17;;
79566;SDS011;69030;48.126;7.816;2023-04-26T11:04:08;5.95;;;2.92;;
79566;SDS011;69030;48.126;7.816;2023-04-26T11:09:37;5.13;;;3.95;;
79566;SDS011;69030;48.126;7.816;2023-04-26T11:12:14;5.85;;;3.42;;
79566;SDS011;69030;48.126;7.816;2023-04-26T11:14:40;6.68;;;4.68;;
79566;SDS011;69030;48.126;7.816;2023-04-26T11:17:06;5.88;;;4.15;;
79566;SDS011;69030;48.126;7.816;2023-04-26T11:19:34;5.40;;;4.28;;
79566;SDS011;69030;48.126;7.816;2023-04-26T11:22:00;5.75;;;3.60;;
79566;SDS011;69030;48.126;7.816;2023-04-26T11:24:27;5.05;;;4.47;;
79566;SDS011;69030;48.126;7.816;2023-04-26T11:29:19;4.20;;;3.73;;
79566;SDS011;69030;48.126;7.816;2023-04-26T11:31:52;6.68;;;4.43;;
79566;SDS011;69030;48.126;7.816;2023-04-26T11:34:22;4.50;;;3.60;;
79566;SDS011;69030;48.126;7.816;2023-04-26T11:36:49;4.20;;;3.80;;
79566;SDS011;69030;48.126;7.816;2023-04-26T11:39:15;3.75;;;3.38;;
79566;SDS011;69030;48.126;7.816;2023-04-26T11:41:40;7.15;;;5.03;;
79566;SDS011;69030;48.126;7.816;2023-04-26T11:44:05;7.50;;;3.72;;
79566;SDS011;69030;48.126;7.816;2023-04-26T11:46:31;3.28;;;2.65;;
79566;SDS011;69030;48.126;7.816;2023-04-26T11:48:59;4.28;;;3.72;;
79566;SDS011;69030;48.126;7.816;2023-04-26T11:51:34;3.47;;;2.92;;
79566;SDS011;69030;48.126;7.816;2023-04-26T11:53:59;4.30;;;3.42;;
79566;SDS011;69030;48.126;7.816;2023-04-26T11:56:25;4.28;;;3.85;;
79566;SDS011;69030;48.126;7.816;2023-04-26T11:58:54;4.47;;;3.42;;
79566;SDS011;69030;48.126;7.816;2023-04-26T12:01:26;7.07;;;4.35;;
79566;SDS011;69030;48.126;7.816;2023-04-26T12:03:56;4.53;;;3.17;;
79566;SDS011;69030;48.126;7.816;2023-04-26T12:06:29;5.05;;;4.55;;
79566;SDS011;69030;48.126;7.816;2023-04-26T12:09:08;4.68;;;3.15;;
79566;SDS011;69030;48.126;7.816;2023-04-26T12:11:35;2.97;;;2.50;;
79566;SDS011;69030;48.126;7.816;2023-04-26T12:14:00;4.25;;;3.78;;
79566;SDS011;69030;48.126;7.816;2023-04-26T12:16:26;3.47;;;3.17;;
79566;SDS011;69030;48.126;7.816;2023-04-26T12:18:51;4.55;;;3.35;;
79566;SDS011;69030;48.126;7.816;2023-04-26T12:21:17;4.75;;;3.55;;
79566;SDS011;69030;48.126;7.816;2023-04-26T12:23:43;5.22;;;2.95;;
79566;SDS011;69030;48.126;7.816;2023-04-26T12:26:11;4.50;;;3.55;;
79566;SDS011;69030;48.126;7.816;2023-04-26T12:28:37;3.97;;;2.58;;
79566;SDS011;69030;48.126;7.816;2023-04-26T12:31:03;4.82;;;3.05;;
79566;SDS011;69030;48.126;7.816;2023-04-26T12:33:28;4.78;;;2.58;;
79566;SDS011;69030;48.126;7.816;2023-04-26T12:35:55;3.33;;;3.00;;
79566;SDS011;69030;48.126;7.816;2023-04-26T12:38:21;6.25;;;3.33;;
79566;SDS011;69030;48.126;7.816;2023-04-26T12:40:47;7.25;;;4.95;;
79566;SDS011;69030;48.126;7.816;2023-04-26T12:43:12;4.25;;;3.72;;
79566;SDS011;69030;48.126;7.816;2023-04-26T12:45:39;4.93;;;3.35;;
79566;SDS011;69030;48.126;7.816;2023-04-26T12:48:05;4.00;;;3.47;;
79566;SDS011;69030;48.126;7.816;2023-04-26T12:50:30;4.68;;;3.53;;
79566;SDS011;69030;48.126;7.816;2023-04-26T12:52:56;5.35;;;3.88;;
79566;SDS011;69030;48.126;7.816;2023-04-26T12:55:21;3.42;;;2.35;;
79566;SDS011;69030;48.126;7.816;2023-04-26T12:57:47;5.40;;;3.58;;
79566;SDS011;69030;48.126;7.816;2023-04-26T13:00:13;5.18;;;4.68;;
79566;SDS011;69030;48.126;7.816;2023-04-26T13:02:39;4.63;;;2.22;;
79566;SDS011;69030;48.126;7.816;2023-04-26T13:05:05;4.68;;;3.72;;
79566;SDS011;69030;48.126;7.816;2023-04-26T13:07:31;7.35;;;4.35;;
79566;SDS011;69030;48.126;7.816;2023-04-26T13:10:01;7.43;;;4.50;;
79566;SDS011;69030;48.126;7.816;2023-04-26T13:12:28;4.90;;;3.70;;
79566;SDS011;69030;48.126;7.816;2023-04-26T13:14:53;4.20;;;3.90;;
79566;SDS011;69030;48.126;7.816;2023-04-26T13:17:22;6.30;;;2.45;;
79566;SDS011;69030;48.126;7.816;2023-04-26T13:19:48;9.52;;;4.15;;
79566;SDS011;69030;48.126;7.816;2023-04-26T13:22:14;8.75;;;5.43;;
79566;SDS011;69030;48.126;7.816;2023-04-26T13:24:39;5.07;;;3.50;;
79566;SDS011;69030;48.126;7.816;2023-04-26T13:27:05;5.85;;;2.65;;
79566;SDS011;69030;48.126;7.816;2023-04-26T13:29:30;4.35;;;2.90;;
79566;SDS011;69030;48.126;7.816;2023-04-26T13:31:56;4.88;;;2.80;;
79566;SDS011;69030;48.126;7.816;2023-04-26T13:34:23;2.83;;;2.47;;
79566;SDS011;69030;48.126;7.816;2023-04-26T13:36:49;4.82;;;3.53;;
79566;SDS011;69030;48.126;7.816;2023-04-26T13:39:15;3.47;;;2.72;;
79566;SDS011;69030;48.126;7.816;2023-04-26T13:41:40;6.95;;;3.78;;
79566;SDS011;69030;48.126;7.816;2023-04-26T13:44:06;3.47;;;2.83;;
79566;SDS011;69030;48.126;7.816;2023-04-26T13:46:31;4.75;;;4.28;;
79566;SDS011;69030;48.126;7.816;2023-04-26T13:48:56;4.88;;;2.92;;
79566;SDS011;69030;48.126;7.816;2023-04-26T13:51:22;4.15;;;2.55;;
79566;SDS011;69030;48.126;7.816;2023-04-26T13:53:49;3.35;;;2.75;;
79566;SDS011;69030;48.126;7.816;2023-04-26T13:56:15;4.63;;;3.33;;
79566;SDS011;69030;48.126;7.816;2023-04-26T13:58:41;6.40;;;3.20;;
79566;SDS011;69030;48.126;7.816;2023-04-26T14:01:08;3.88;;;2.63;;
79566;SDS011;69030;48.126;7.816;2023-04-26T14:03:34;10.10;;;4.15;;
79566;SDS011;69030;48.126;7.816;2023-04-26T14:05:59;4.07;;;2.97;;
79566;SDS011;69030;48.126;7.816;2023-04-26T14:08:26;3.90;;;2.92;;
79566;SDS011;69030;48.126;7.816;2023-04-26T14:10:52;6.30;;;3.20;;
79566;SDS011;69030;48.126;7.816;2023-04-26T14:13:17;4.70;;;3.10;;
79566;SDS011;69030;48.126;7.816;2023-04-26T14:15:42;5.00;;;3.42;;
79566;SDS011;69030;48.126;7.816;2023-04-26T14:18:08;4.18;;;3.88;;
79566;SDS011;69030;48.126;7.816;2023-04-26T14:20:33;5.30;;;3.25;;
79566;SDS011;69030;48.126;7.816;2023-04-26T14:22:58;5.30;;;3.30;;
79566;SDS011;69030;48.126;7.816;2023-04-26T14:25:24;5.50;;;4.05;;
79566;SDS011;69030;48.126;7.816;2023-04-26T14:27:51;4.43;;;3.88;;
79566;SDS011;69030;48.126;7.816;2023-04-26T14:30:17;3.53;;;3.15;;
79566;SDS011;69030;48.126;7.816;2023-04-26T14:32:43;4.63;;;3.45;;
79566;SDS011;69030;48.126;7.816;2023-04-26T14:35:09;4.32;;;3.60;;
79566;SDS011;69030;48.126;7.816;2023-04-26T14:37:34;4.70;;;3.45;;
79566;SDS011;69030;48.126;7.816;2023-04-26T14:40:00;6.75;;;4.95;;
79566;SDS011;69030;48.126;7.816;2023-04-26T14:42:26;4.35;;;2.08;;
79566;SDS011;69030;48.126;7.816;2023-04-26T14:44:51;4.97;;;3.97;;
79566;SDS011;69030;48.126;7.816;2023-04-26T14:47:16;4.15;;;3.75;;
79566;SDS011;69030;48.126;7.816;2023-04-26T14:49:42;5.57;;;3.53;;
79566;SDS011;69030;48.126;7.816;2023-04-26T14:52:07;9.52;;;4.35;;
79566;SDS011;69030;48.126;7.816;2023-04-26T14:54:36;7.47;;;2.75;;
79566;SDS011;69030;48.126;7.816;2023-04-26T14:57:02;6.00;;;3.40;;
79566;SDS011;69030;48.126;7.816;2023-04-26T14:59:28;4.63;;;3.63;;
79566;SDS011;69030;48.126;7.816;2023-04-26T15:01:56;6.80;;;3.80;;
79566;SDS011;69030;48.126;7.816;2023-04-26T15:04:22;6.32;;;3.50;;
79566;SDS011;69030;48.126;7.816;2023-04-26T15:06:47;5.93;;;4.15;;
79566;SDS011;69030;48.126;7.816;2023-04-26T15:09:13;4.65;;;2.55;;